Time;durP1;ratioP1;P1;durP2;ratioP2;P2;SDS_P1;SDS_P2;PMS_P1;PMS_P2;Temp;Humidity;BMP_temperature;BMP_pressure;BME280_temperature;BME280_humidity;BME280_pressure;Samples;Min_cycle;Max_cycle;Signal;HPM_P1;HPM_P2
2022/06/14 00:00:58;;;;;;;3.85;1.70;;;;;;;10.69;100.00;101332.09;6248034;28;20038;-90
2022/06/14 00:04:01;;;;;;;3.58;1.48;;;;;;;10.71;100.00;101326.81;6254892;28;20406;-90
2022/06/14 00:07:06;;;;;;;5.43;1.70;;;;;;;10.72;100.00;101320.69;6256021;28;20049;-90
2022/06/14 00:10:08;;;;;;;5.68;1.55;;;;;;;10.74;100.00;101322.25;6237711;28;20042;-90
2022/06/14 00:13:11;;;;;;;5.50;1.55;;;;;;;10.74;100.00;101329.19;6221363;28;20171;-90
2022/06/14 00:16:17;;;;;;;4.32;1.77;;;;;;;10.80;100.00;101323.59;6245574;28;20102;-89
2022/06/14 00:19:19;;;;;;;3.13;1.42;;;;;;;10.87;100.00;101322.25;6254577;28;20041;-90
2022/06/14 00:22:21;;;;;;;2.60;1.67;;;;;;;10.90;100.00;101324.63;6253890;28;20053;-90
2022/06/14 00:25:27;;;;;;;3.67;1.50;;;;;;;10.87;100.00;101331.78;6235910;28;20120;-90
2022/06/14 00:28:33;;;;;;;2.00;1.58;;;;;;;10.91;100.00;101331.47;6235254;28;20048;-90
2022/06/14 00:31:36;;;;;;;2.88;1.85;;;;;;;10.97;100.00;101325.88;6250957;28;20629;-90
2022/06/14 00:34:40;;;;;;;4.20;1.70;;;;;;;10.91;100.00;101320.28;6240979;28;20500;-90
2022/06/14 00:37:45;;;;;;;4.38;1.92;;;;;;;10.83;100.00;101328.59;6242129;28;20124;-90
2022/06/14 00:40:57;;;;;;;3.58;1.63;;;;;;;10.76;100.00;101327.34;6228572;28;20163;-90
2022/06/14 00:44:02;;;;;;;5.47;1.75;;;;;;;10.68;100.00;101329.59;6230187;28;20056;-90
2022/06/14 00:47:05;;;;;;;3.20;1.58;;;;;;;10.60;100.00;101327.50;6247736;28;20060;-90
2022/06/14 00:50:24;;;;;;;3.72;1.70;;;;;;;10.52;100.00;101327.19;6249841;28;20037;-90
2022/06/14 00:53:32;;;;;;;3.17;1.80;;;;;;;10.45;100.00;101315.59;6254660;28;20052;-90
2022/06/14 00:56:45;;;;;;;2.58;1.55;;;;;;;10.41;100.00;101312.38;6259417;28;20080;-90
2022/06/14 01:00:01;;;;;;;4.65;1.70;;;;;;;10.36;100.00;101309.28;6257765;28;20037;-90
2022/06/14 01:03:13;;;;;;;4.43;1.70;;;;;;;10.33;100.00;101299.94;6244940;28;20044;-90
2022/06/14 01:06:20;;;;;;;4.45;1.80;;;;;;;10.34;100.00;101309.34;6265025;28;20052;-89
2022/06/14 01:09:31;;;;;;;4.10;1.85;;;;;;;10.27;100.00;101307.25;6240669;28;20041;-90
2022/06/14 01:12:45;;;;;;;2.42;1.70;;;;;;;10.25;100.00;101311.69;6238806;28;20106;-89
2022/06/14 01:15:50;;;;;;;4.78;2.17;;;;;;;10.21;100.00;101307.63;6261296;28;20065;-90
2022/06/14 01:18:52;;;;;;;3.38;1.95;;;;;;;10.19;100.00;101318.09;6251617;28;20472;-90
2022/06/14 01:22:03;;;;;;;4.13;1.73;;;;;;;10.14;100.00;101314.97;6232543;28;20049;-90
2022/06/14 01:25:07;;;;;;;4.20;1.73;;;;;;;10.11;100.00;101315.13;6231106;28;20042;-90
2022/06/14 01:28:10;;;;;;;4.45;1.58;;;;;;;10.09;100.00;101317.84;6225846;28;20044;-90
2022/06/14 01:31:17;;;;;;;3.67;2.20;;;;;;;10.03;100.00;101317.41;6251713;28;20054;-90
2022/06/14 01:34:20;;;;;;;3.20;1.70;;;;;;;9.98;100.00;101317.69;6226335;28;20047;-90
2022/06/14 01:37:23;;;;;;;4.15;2.00;;;;;;;9.96;100.00;101309.19;6237172;28;20048;-90
2022/06/14 01:40:35;;;;;;;3.25;1.75;;;;;;;9.91;100.00;101304.34;6243812;28;20056;-90
2022/06/14 01:43:55;;;;;;;3.08;2.03;;;;;;;9.88;100.00;101301.09;6231608;28;20057;-90
2022/06/14 01:47:21;;;;;;;4.10;1.92;;;;;;;9.87;100.00;101304.63;6236462;28;20038;-90
2022/06/14 01:54:28;;;;;;;5.05;1.75;;;;;;;9.85;100.00;101309.06;6238354;28;20143;-90
2022/06/14 01:58:19;;;;;;;3.40;1.60;;;;;;;9.80;100.00;101298.19;6216542;28;20152;-90
2022/06/14 02:01:47;;;;;;;5.88;1.85;;;;;;;9.79;100.00;101305.13;6191073;28;20064;-90
2022/06/14 02:05:05;;;;;;;5.88;2.20;;;;;;;9.76;100.00;101301.88;6192627;28;20050;-90
2022/06/14 02:08:15;;;;;;;5.20;1.80;;;;;;;9.72;100.00;101300.44;6187244;28;20049;-90
2022/06/14 02:11:28;;;;;;;3.83;1.80;;;;;;;9.69;100.00;101291.94;6158233;28;20057;-90
2022/06/14 02:14:38;;;;;;;4.60;1.88;;;;;;;9.67;100.00;101287.78;6190816;28;20050;-90
2022/06/14 02:18:00;;;;;;;5.28;1.80;;;;;;;9.68;100.00;101292.03;6193202;28;20599;-90
2022/06/14 02:21:06;;;;;;;5.30;1.70;;;;;;;9.68;100.00;101305.78;6175625;28;20050;-90
2022/06/14 02:24:28;;;;;;;4.20;1.75;;;;;;;9.64;100.00;101321.59;6190023;28;20424;-90
2022/06/14 02:27:39;;;;;;;4.68;1.50;;;;;;;9.62;100.00;101311.34;6194825;28;20046;-90
2022/06/14 02:30:54;;;;;;;2.60;1.60;;;;;;;9.61;100.00;101314.84;6203227;28;20128;-90
2022/06/14 02:34:05;;;;;;;4.88;2.00;;;;;;;9.57;100.00;101318.56;6170363;28;20512;-90
2022/06/14 02:37:20;;;;;;;5.05;1.67;;;;;;;9.45;100.00;101316.72;6204146;28;20104;-90
2022/06/14 02:40:39;;;;;;;5.35;1.88;;;;;;;9.50;100.00;101322.44;6229293;28;20112;-90
2022/06/14 02:43:48;;;;;;;3.40;1.83;;;;;;;9.47;100.00;101330.38;6237020;28;20093;-90
2022/06/14 02:46:54;;;;;;;4.78;1.92;;;;;;;9.43;100.00;101328.91;6226064;28;20144;-90
2022/06/14 02:50:06;;;;;;;3.42;1.50;;;;;;;9.41;100.00;101318.66;6231069;28;20041;-90
2022/06/14 02:53:39;;;;;;;5.93;2.00;;;;;;;9.35;100.00;101321.63;6216734;28;20415;-90
2022/06/14 02:56:48;;;;;;;5.43;1.80;;;;;;;9.30;100.00;101320.25;6228398;28;20077;-90
2022/06/14 03:00:04;;;;;;;5.35;2.40;;;;;;;9.25;100.00;101310.19;6220090;28;20041;-90
2022/06/14 03:03:21;;;;;;;3.05;1.70;;;;;;;9.27;100.00;101316.91;6232158;28;20105;-90
2022/06/14 03:06:58;;;;;;;3.30;1.60;;;;;;;9.21;100.00;101316.47;6262996;28;20041;-90
2022/06/14 03:10:01;;;;;;;2.92;1.77;;;;;;;9.25;100.00;101312.78;6261052;28;20120;-90
2022/06/14 03:13:10;;;;;;;4.60;1.92;;;;;;;9.23;100.00;101314.63;6226671;28;20666;-90
2022/06/14 03:16:51;;;;;;;4.38;1.90;;;;;;;9.30;100.00;101310.75;6221496;28;20037;-90
2022/06/14 03:20:10;;;;;;;4.28;1.95;;;;;;;9.39;100.00;101307.59;6232243;28;20581;-90
2022/06/14 03:23:24;;;;;;;6.63;2.35;;;;;;;9.43;100.00;101315.97;6241188;28;20065;-90
2022/06/14 03:26:37;;;;;;;3.67;1.73;;;;;;;9.51;100.00;101316.34;6244139;28;20042;-90
2022/06/14 03:29:56;;;;;;;4.45;1.70;;;;;;;9.62;100.00;101313.94;6224258;28;20053;-90
2022/06/14 03:33:21;;;;;;;3.45;1.83;;;;;;;9.64;100.00;101313.84;6230112;28;20060;-90
2022/06/14 03:36:23;;;;;;;7.45;2.05;;;;;;;9.72;100.00;101316.75;6232028;28;20052;-90
2022/06/14 03:39:31;;;;;;;4.63;2.10;;;;;;;9.81;100.00;101312.75;6206077;28;20042;-90
2022/06/14 03:42:35;;;;;;;3.92;2.00;;;;;;;9.85;100.00;101314.22;6241363;28;20074;-90
2022/06/14 03:46:10;;;;;;;5.18;2.00;;;;;;;9.92;100.00;101326.69;6234246;28;20034;-90
2022/06/14 03:49:25;;;;;;;3.50;1.70;;;;;;;10.02;100.00;101319.16;6219052;28;20076;-90
2022/06/14 03:52:26;;;;;;;4.25;2.13;;;;;;;10.05;100.00;101321.53;6219910;28;20121;-90
2022/06/14 03:56:01;;;;;;;3.60;2.08;;;;;;;10.18;100.00;101318.16;6219320;28;20072;-90
2022/06/14 03:59:22;;;;;;;4.90;2.05;;;;;;;10.25;100.00;101335.78;6220895;28;20533;-89
2022/06/14 04:02:53;;;;;;;3.65;2.03;;;;;;;10.34;100.00;101339.59;6223923;28;20049;-89
2022/06/14 04:06:14;;;;;;;5.75;2.65;;;;;;;10.42;100.00;101334.72;6239590;28;20041;-90
2022/06/14 04:09:46;;;;;;;2.90;1.95;;;;;;;10.48;100.00;101336.94;6240705;28;20550;-90
2022/06/14 04:13:01;;;;;;;6.53;2.28;;;;;;;10.52;100.00;101322.03;6232741;28;20061;-90
2022/06/14 04:16:28;;;;;;;10.18;2.10;;;;;;;10.62;100.00;101319.66;6235916;28;20030;-90
2022/06/14 04:19:42;;;;;;;7.88;2.20;;;;;;;10.66;100.00;101311.59;6256209;28;20474;-90
2022/06/14 04:23:11;;;;;;;5.18;1.75;;;;;;;10.80;100.00;101320.19;6262938;28;20047;-90
2022/06/14 04:26:33;;;;;;;5.60;2.30;;;;;;;10.88;100.00;101323.06;6233896;28;20797;-89
2022/06/14 04:29:43;;;;;;;5.38;2.13;;;;;;;11.01;100.00;101318.75;6242399;28;20049;-90
2022/06/14 04:32:58;;;;;;;5.55;2.08;;;;;;;11.05;100.00;101311.56;6234683;28;20046;-90
2022/06/14 04:36:18;;;;;;;5.07;1.98;;;;;;;11.20;100.00;101320.88;6245091;28;20486;-90
2022/06/14 04:39:30;;;;;;;3.60;2.33;;;;;;;11.39;100.00;101320.44;6219459;28;20050;-90
2022/06/14 04:42:46;;;;;;;7.25;3.08;;;;;;;11.51;100.00;101329.13;6247721;28;20046;-90
2022/06/14 04:46:28;;;;;;;3.85;1.92;;;;;;;11.49;100.00;101334.41;6229358;28;20038;-90
2022/06/14 04:49:46;;;;;;;5.18;2.38;;;;;;;11.59;100.00;101348.41;6153708;28;20826;-90
2022/06/14 04:53:17;;;;;;;6.22;2.05;;;;;;;11.66;100.00;101337.59;6165075;28;20704;-90
2022/06/14 04:56:32;;;;;;;3.80;2.30;;;;;;;11.79;100.00;101334.03;6090379;29;20131;-89
2022/06/14 04:59:41;;;;;;;6.32;2.20;;;;;;;11.83;100.00;101332.88;6089889;29;20049;-90
2022/06/14 05:03:04;;;;;;;6.20;2.55;;;;;;;11.86;100.00;101324.03;6086961;29;20044;-90
2022/06/14 05:06:17;;;;;;;7.68;2.80;;;;;;;11.84;100.00;101336.28;6083567;29;20201;-90
2022/06/14 05:09:26;;;;;;;8.05;2.90;;;;;;;11.77;100.00;101325.50;6052441;29;20212;-90
2022/06/14 05:12:35;;;;;;;6.50;3.03;;;;;;;11.81;100.00;101329.56;6052820;29;20055;-89
2022/06/14 05:15:53;;;;;;;6.82;3.17;;;;;;;11.78;100.00;101331.56;6054634;29;20613;-90
2022/06/14 05:19:17;;;;;;;6.75;3.35;;;;;;;11.77;100.00;101335.06;6066880;29;20102;-90
2022/06/14 05:22:46;;;;;;;7.60;3.70;;;;;;;11.85;100.00;101348.34;6059927;29;20052;-90
2022/06/14 05:25:59;;;;;;;5.95;3.20;;;;;;;11.98;100.00;101338.75;6117251;28;20488;-90
2022/06/14 05:29:16;;;;;;;5.95;2.95;;;;;;;12.15;100.00;101350.53;6137119;28;20134;-90
2022/06/14 05:32:30;;;;;;;8.68;2.80;;;;;;;12.41;100.00;101351.22;6182990;28;20057;-90
2022/06/14 05:35:39;;;;;;;6.10;2.20;;;;;;;12.60;100.00;101352.47;6217595;28;20061;-90
2022/06/14 05:39:01;;;;;;;5.68;2.15;;;;;;;12.76;100.00;101349.53;6235433;28;20525;-90
2022/06/14 05:42:15;;;;;;;3.72;2.08;;;;;;;12.83;100.00;101353.34;6268125;28;20041;-90
2022/06/14 05:45:22;;;;;;;4.15;2.50;;;;;;;12.87;100.00;101355.59;6259930;28;20064;-89
2022/06/14 05:48:33;;;;;;;5.63;2.38;;;;;;;13.00;100.00;101352.06;6261123;28;20071;-90
2022/06/14 05:51:48;;;;;;;5.78;2.30;;;;;;;13.01;100.00;101356.31;6259098;28;20568;-90
2022/06/14 05:55:05;;;;;;;3.72;2.03;;;;;;;13.07;100.00;101348.88;6260681;28;20493;-90
2022/06/14 05:58:19;;;;;;;6.93;2.47;;;;;;;13.18;100.00;101353.25;6254567;28;20029;-90
2022/06/14 06:01:35;;;;;;;5.50;2.30;;;;;;;13.33;100.00;101359.06;6249002;28;20049;-90
2022/06/14 06:04:49;;;;;;;6.22;2.15;;;;;;;13.51;100.00;101360.25;6249924;28;20044;-90
2022/06/14 06:08:20;;;;;;;5.50;2.10;;;;;;;13.79;100.00;101364.13;6225746;28;20045;-90
2022/06/14 06:11:29;;;;;;;3.47;2.08;;;;;;;14.13;100.00;101368.41;6228721;28;20046;-90
2022/06/14 06:14:35;;;;;;;3.53;2.22;;;;;;;14.38;100.00;101375.03;6251818;28;20037;-90
2022/06/14 06:17:45;;;;;;;6.53;2.03;;;;;;;14.55;100.00;101374.53;6243785;28;20053;-90
2022/06/14 06:21:24;;;;;;;6.45;1.90;;;;;;;14.69;100.00;101376.00;6253890;28;20645;-90
2022/06/14 06:24:38;;;;;;;3.28;1.80;;;;;;;15.01;100.00;101377.72;6185623;28;20069;-90
2022/06/14 06:28:00;;;;;;;7.45;1.90;;;;;;;15.30;100.00;101372.63;6201510;28;20064;-90
2022/06/14 06:31:09;;;;;;;5.63;1.83;;;;;;;15.57;100.00;101382.47;6189070;28;20050;-90
2022/06/14 06:34:15;;;;;;;5.90;1.75;;;;;;;15.74;100.00;101380.22;6203227;28;20503;-90
2022/06/14 06:37:54;;;;;;;5.82;1.80;;;;;;;15.77;100.00;101385.16;6203737;28;20144;-90
2022/06/14 06:44:57;;;;;;;5.22;1.40;;;;;;;15.46;98.90;101383.41;6190638;28;20054;-89
2022/06/14 06:48:21;;;;;;;2.10;1.17;;;;;;;15.46;94.47;101378.19;6201364;28;20058;-90
2022/06/14 06:51:34;;;;;;;5.82;1.13;;;;;;;15.45;93.79;101368.72;6199144;28;20193;-89
2022/06/14 06:54:58;;;;;;;2.30;1.20;;;;;;;15.28;96.75;101379.78;6209731;28;20447;-89
2022/06/14 06:58:04;;;;;;;4.32;1.33;;;;;;;15.33;97.10;101384.56;6204704;28;20272;-90
2022/06/14 07:01:18;;;;;;;3.88;1.38;;;;;;;15.28;95.46;101383.19;6246819;28;20057;-89
2022/06/14 07:08:13;;;;;;;5.13;1.10;;;;;;;15.35;91.75;101380.88;6246359;28;20045;-90
2022/06/14 07:11:19;;;;;;;3.45;1.30;;;;;;;15.42;92.93;101383.78;6236936;28;20128;-90
2022/06/14 07:14:26;;;;;;;5.30;2.08;;;;;;;15.61;93.87;101389.09;6254955;28;20392;-90
2022/06/14 07:18:12;;;;;;;4.78;1.73;;;;;;;15.79;94.51;101386.69;6248438;28;20045;-89
2022/06/14 07:21:30;;;;;;;4.15;1.15;;;;;;;15.85;96.08;101374.88;6166546;28;20059;-89
2022/06/14 07:24:39;;;;;;;6.82;1.23;;;;;;;15.74;94.20;101388.88;6177869;28;20245;-90
2022/06/14 07:28:24;;;;;;;6.57;1.45;;;;;;;15.74;88.29;101388.06;6191004;28;20555;-90
2022/06/14 07:31:37;;;;;;;6.90;1.70;;;;;;;15.69;86.92;101388.41;6199182;28;20077;-90
2022/06/14 07:34:41;;;;;;;4.78;1.20;;;;;;;15.64;87.53;101386.19;6194360;28;20188;-90
2022/06/14 07:37:59;;;;;;;4.20;1.15;;;;;;;15.56;87.69;101378.22;6186705;28;20100;-90
2022/06/14 07:41:48;;;;;;;4.68;1.35;;;;;;;15.52;86.64;101379.44;6190261;28;20050;-90
2022/06/14 07:45:07;;;;;;;2.83;1.13;;;;;;;15.58;90.88;101375.47;6164829;28;20064;-90
2022/06/14 07:48:37;;;;;;;3.45;1.17;;;;;;;15.69;86.43;101380.59;6177929;28;20099;-89
2022/06/14 07:51:47;;;;;;;7.53;1.30;;;;;;;15.75;88.79;101380.09;6182123;28;20059;-90
2022/06/14 07:54:54;;;;;;;5.40;1.48;;;;;;;16.00;88.61;101381.38;6187561;28;20050;-91
2022/06/14 07:58:08;;;;;;;3.65;1.27;;;;;;;16.19;83.18;101374.50;6206020;28;20772;-90
2022/06/14 08:01:20;;;;;;;4.00;1.30;;;;;;;16.20;84.86;101379.59;6237000;28;20043;-90
2022/06/14 08:04:31;;;;;;;7.70;1.58;;;;;;;16.18;84.31;101384.13;6228439;28;20072;-90
2022/06/14 08:07:34;;;;;;;6.05;1.70;;;;;;;16.13;85.27;101383.72;6247657;28;20495;-90
2022/06/14 08:10:42;;;;;;;3.72;1.33;;;;;;;16.10;86.26;101384.00;6248713;28;20578;-90
2022/06/14 08:13:51;;;;;;;6.43;1.20;;;;;;;16.06;85.95;101378.22;6262061;28;20497;-90
2022/06/14 08:16:56;;;;;;;5.93;1.55;;;;;;;15.89;87.84;101386.69;6261782;28;20510;-90
2022/06/14 08:20:50;;;;;;;4.90;1.40;;;;;;;15.93;92.90;101383.69;6263521;28;20069;-90
2022/06/14 08:24:05;;;;;;;5.55;1.60;;;;;;;16.03;87.89;101386.31;6172587;28;20050;-90
2022/06/14 08:27:14;;;;;;;7.68;1.90;;;;;;;16.29;86.07;101383.16;6189985;28;20046;-89
2022/06/14 08:30:25;;;;;;;4.43;1.55;;;;;;;16.71;84.19;101382.88;6198630;28;20377;-90
2022/06/14 08:33:40;;;;;;;3.87;1.30;;;;;;;17.30;82.01;101376.53;6196395;28;20651;-90
2022/06/14 08:37:02;;;;;;;7.35;2.00;;;;;;;17.64;78.90;101378.59;6198011;28;20297;-90
2022/06/14 08:40:32;;;;;;;4.25;1.50;;;;;;;17.56;78.34;101371.44;6197195;28;20038;-90
2022/06/14 08:43:40;;;;;;;5.37;1.60;;;;;;;17.17;78.95;101384.72;6210809;28;20570;-90
2022/06/14 08:47:01;;;;;;;5.18;1.60;;;;;;;16.70;82.87;101386.47;6188635;28;20058;-90
2022/06/14 08:50:07;;;;;;;;;;;;;;;16.33;84.01;101384.56;6187115;28;20427;-90
2022/06/14 08:53:45;;;;;;;13.48;2.80;;;;;;;16.14;87.08;101386.19;6197516;28;19931;-90
2022/06/14 08:57:24;;;;;;;8.15;4.10;;;;;;;16.18;85.67;101380.72;6258218;28;20044;-90
2022/06/14 09:00:39;;;;;;;3.90;2.30;;;;;;;16.28;85.44;101389.38;6208165;28;20192;-90
2022/06/14 09:04:02;;;;;;;7.50;2.67;;;;;;;16.39;85.09;101380.56;6209341;28;20061;-90
2022/06/14 09:07:10;;;;;;;6.78;2.00;;;;;;;16.51;85.44;101382.06;6195719;28;20050;-90
2022/06/14 09:10:42;;;;;;;5.53;2.17;;;;;;;16.77;81.64;101382.31;6190690;28;20037;-90
2022/06/14 09:13:59;;;;;;;4.10;2.22;;;;;;;17.28;78.83;101385.50;6152076;28;20058;-90
2022/06/14 09:17:31;;;;;;;9.38;2.63;;;;;;;17.95;74.85;101375.66;6149684;28;20047;-90
2022/06/14 09:21:24;;;;;;;6.40;2.08;;;;;;;18.28;71.52;101377.63;6159126;28;20190;-90
2022/06/14 09:24:56;;;;;;;6.22;2.58;;;;;;;18.22;69.14;101383.47;6151558;28;20048;-90
2022/06/14 09:28:31;;;;;;;5.07;2.28;;;;;;;17.96;71.24;101374.69;6129496;28;20187;-90
2022/06/14 09:31:36;;;;;;;5.03;2.63;;;;;;;17.96;72.29;101382.53;6116580;28;20070;-90
2022/06/14 09:35:06;;;;;;;3.53;2.30;;;;;;;18.15;70.55;101377.16;6140797;28;20078;-90
2022/06/14 09:38:26;;;;;;;;;;;;;;;18.15;67.25;101379.78;6146722;28;20133;-90
2022/06/14 09:41:50;;;;;;;4.78;1.98;;;;;;;18.38;68.81;101377.53;6149831;28;19933;-91
2022/06/14 09:44:59;;;;;;;4.63;2.30;;;;;;;18.52;67.46;101382.22;6147581;28;20051;-90
2022/06/14 09:48:41;;;;;;;6.07;2.17;;;;;;;18.87;63.77;101377.91;6147852;28;20709;-91
2022/06/14 09:52:10;;;;;;;4.13;1.60;;;;;;;18.97;61.05;101377.81;6217554;28;20065;-90
2022/06/14 09:55:37;;;;;;;4.13;1.80;;;;;;;19.15;61.54;101370.72;6235919;28;20045;-90
2022/06/14 09:59:05;;;;;;;4.20;1.90;;;;;;;19.60;58.90;101376.59;6231448;28;20121;-90
2022/06/14 10:02:13;;;;;;;8.40;2.10;;;;;;;19.71;57.56;101373.72;6247660;28;20048;-91
2022/06/14 10:05:23;;;;;;;5.63;1.50;;;;;;;19.61;56.53;101375.63;6243407;28;20521;-90
2022/06/14 10:08:53;;;;;;;3.72;1.40;;;;;;;19.74;54.79;101378.66;6234905;28;20423;-90
2022/06/14 10:12:14;;;;;;;4.75;1.73;;;;;;;19.55;56.37;101369.22;6237456;28;20037;-90
2022/06/14 10:15:36;;;;;;;5.90;1.83;;;;;;;19.08;57.03;101371.47;6236247;28;20046;-91
2022/06/14 10:19:16;;;;;;;4.97;1.92;;;;;;;19.13;57.32;101370.03;6222729;28;20511;-91
2022/06/14 10:23:13;;;;;;;6.43;2.50;;;;;;;19.61;54.82;101362.50;6221910;28;20041;-91
2022/06/14 10:30:31;;;;;;;6.80;2.15;;;;;;;19.46;57.63;101370.16;6146522;28;20043;-91
2022/06/14 10:33:44;;;;;;;8.02;2.00;;;;;;;18.86;57.47;101367.59;6149015;28;20134;-90
2022/06/14 10:37:12;;;;;;;1.90;1.52;;;;;;;18.66;57.61;101365.13;6149389;28;20047;-90
2022/06/14 10:40:27;;;;;;;3.55;2.10;;;;;;;18.79;58.73;101366.56;6155971;28;20046;-90
2022/06/14 10:43:35;;;;;;;4.72;2.35;;;;;;;18.98;59.30;101374.22;6138948;28;20078;-91
2022/06/14 10:46:45;;;;;;;8.95;2.58;;;;;;;19.22;57.41;101362.19;6151726;28;20055;-90
2022/06/14 10:49:57;;;;;;;3.60;2.60;;;;;;;19.69;58.13;101367.81;6152074;28;20181;-90
2022/06/14 10:53:13;;;;;;;7.07;2.65;;;;;;;19.98;53.94;101362.13;6143410;28;20700;-90
2022/06/14 10:56:52;;;;;;;2.75;2.22;;;;;;;20.57;51.92;101359.38;6148551;28;20062;-90
2022/06/14 11:00:17;;;;;;;4.15;2.05;;;;;;;21.26;50.19;101353.56;6177565;28;20112;-90
2022/06/14 11:03:44;;;;;;;5.20;2.45;;;;;;;21.39;49.67;101359.16;6216603;28;20050;-90
2022/06/14 11:07:05;;;;;;;4.95;2.10;;;;;;;21.27;51.03;101363.94;6221007;28;20080;-91
2022/06/14 11:10:50;;;;;;;4.28;1.60;;;;;;;21.07;48.24;101352.19;6245094;28;20204;-91
2022/06/14 11:14:15;;;;;;;5.55;2.20;;;;;;;20.95;48.57;101350.91;6195431;28;20046;-91
2022/06/14 11:17:55;;;;;;;3.47;2.30;;;;;;;20.17;49.24;101357.53;6166490;28;20258;-91
2022/06/14 11:21:02;;;;;;;2.88;2.25;;;;;;;19.92;53.44;101349.63;6114886;29;20055;-91
2022/06/14 11:24:28;;;;;;;3.03;2.42;;;;;;;20.40;51.75;101347.19;6114532;29;20063;-90
2022/06/14 11:27:42;;;;;;;6.47;2.50;;;;;;;20.67;52.50;101347.81;6105790;29;21050;-91
2022/06/14 11:30:52;;;;;;;3.95;2.30;;;;;;;20.88;50.22;101347.31;6103523;29;20063;-90
2022/06/14 11:34:07;;;;;;;3.83;2.90;;;;;;;20.68;52.41;101352.13;6105744;29;20540;-92
2022/06/14 11:37:39;;;;;;;4.53;2.55;;;;;;;20.64;51.71;101349.81;6129974;29;20146;-91
2022/06/14 11:40:50;;;;;;;7.32;2.85;;;;;;;20.56;53.34;101338.47;6118412;29;20105;-92
2022/06/14 11:44:50;;;;;;;6.43;2.88;;;;;;;20.95;50.76;101335.94;6138262;29;20092;-92
2022/06/14 11:48:12;;;;;;;3.72;2.38;;;;;;;20.79;48.17;101333.34;6020758;29;20062;-91
2022/06/14 11:51:26;;;;;;;5.50;2.67;;;;;;;20.27;53.06;101329.25;6115903;28;20564;-91
2022/06/14 11:54:52;;;;;;;6.28;2.60;;;;;;;20.73;51.38;101334.84;6124827;28;20189;-92
2022/06/14 11:58:02;;;;;;;4.68;2.58;;;;;;;20.88;50.85;101342.84;6141906;28;20421;-92
2022/06/14 12:01:38;;;;;;;2.78;2.50;;;;;;;20.18;51.69;101328.47;6154111;28;20047;-91
2022/06/14 12:05:17;;;;;;;5.95;2.65;;;;;;;20.01;54.31;101327.63;6152051;28;20063;-91
2022/06/14 12:08:28;;;;;;;5.47;2.45;;;;;;;19.90;53.75;101333.22;6143554;28;20615;-91
2022/06/14 12:11:35;;;;;;;3.97;2.17;;;;;;;20.08;53.38;101317.28;6140132;28;20050;-91
2022/06/14 12:14:56;;;;;;;8.30;2.78;;;;;;;20.34;52.84;101332.88;6157716;28;20128;-91
2022/06/14 12:18:00;;;;;;;;;;;;;;;20.76;51.83;101320.53;6164333;28;20051;-91
2022/06/14 12:21:10;;;;;;;3.53;2.20;;;;;;;20.96;51.21;101316.50;6134069;28;20066;-92
2022/06/14 12:24:21;;;;;;;2.60;2.10;;;;;;;21.41;50.42;101312.38;6253725;28;20056;-91
2022/06/14 12:27:23;;;;;;;4.72;2.42;;;;;;;21.96;50.42;101315.81;6249082;28;20119;-93
2022/06/14 12:30:27;;;;;;;5.63;2.10;;;;;;;22.64;47.71;101311.44;6262584;28;20040;-91
2022/06/14 12:33:37;;;;;;;3.13;2.05;;;;;;;22.65;46.44;101313.06;6246191;28;20049;-91
2022/06/14 12:36:49;;;;;;;6.25;2.08;;;;;;;22.47;46.38;101315.25;6260024;28;20143;-91
2022/06/14 12:39:57;;;;;;;6.38;2.33;;;;;;;22.34;44.74;101303.50;6220143;28;20038;-91
2022/06/14 12:43:22;;;;;;;5.07;2.30;;;;;;;22.17;45.98;101298.53;6240450;28;20059;-92
2022/06/14 12:46:30;;;;;;;3.25;1.90;;;;;;;22.34;46.37;101295.56;6254155;28;20044;-91
2022/06/14 12:49:39;;;;;;;3.85;2.05;;;;;;;22.59;44.82;101295.34;6262580;28;21033;-92
2022/06/14 12:52:47;;;;;;;3.55;1.75;;;;;;;22.32;44.69;101297.56;6225985;28;1054878;-93
2022/06/14 12:55:56;;;;;;;4.93;1.92;;;;;;;21.66;47.30;101297.28;6264055;28;20068;-92
2022/06/14 12:59:37;;;;;;;5.65;2.22;;;;;;;21.35;49.21;101291.97;6242666;28;20053;-91
2022/06/14 13:03:05;;;;;;;6.35;1.73;;;;;;;21.79;49.56;101298.47;6208937;28;20073;-91
2022/06/14 13:06:31;;;;;;;6.50;2.50;;;;;;;22.05;51.27;101279.66;6211354;28;20066;-91
2022/06/14 13:09:52;;;;;;;3.05;2.00;;;;;;;22.29;42.47;101276.84;6183275;28;20046;-92
2022/06/14 13:13:32;;;;;;;3.83;2.00;;;;;;;22.43;44.65;101259.38;6173502;28;20051;-91
2022/06/14 13:17:00;;;;;;;4.10;2.00;;;;;;;23.07;46.38;101268.56;6172348;28;20050;-92
2022/06/14 13:20:28;;;;;;;5.28;1.85;;;;;;;23.22;44.83;101269.34;6114234;29;20615;-92
2022/06/14 13:24:13;;;;;;;5.50;2.10;;;;;;;23.14;43.54;101266.81;6099700;29;20541;-92
2022/06/14 13:27:42;;;;;;;3.70;1.60;;;;;;;23.08;43.78;101262.25;6123885;29;20056;-93
2022/06/14 13:31:06;;;;;;;6.82;2.00;;;;;;;23.09;44.45;101266.56;6123663;29;20068;-91
2022/06/14 13:34:26;;;;;;;3.90;1.63;;;;;;;23.32;44.26;101250.53;6118229;29;20413;-92
2022/06/14 13:37:46;;;;;;;4.22;1.70;;;;;;;23.33;44.99;101263.56;6116580;29;20071;-92
2022/06/14 13:41:04;;;;;;;5.07;1.77;;;;;;;23.16;42.87;101268.25;6152511;28;20055;-92
2022/06/14 13:44:15;;;;;;;4.55;1.88;;;;;;;23.09;44.75;101262.09;6163477;28;20509;-92
2022/06/14 13:47:41;;;;;;;6.68;1.73;;;;;;;23.06;46.53;101254.53;6132785;28;20417;-93
2022/06/14 13:50:51;;;;;;;4.40;1.70;;;;;;;23.28;43.73;101250.13;6140333;28;20134;-92
2022/06/14 13:54:27;;;;;;;3.78;1.85;;;;;;;23.39;43.57;101252.25;6152538;28;20105;-92
2022/06/14 13:57:33;;;;;;;5.22;1.88;;;;;;;23.38;43.32;101245.34;6223325;28;20475;-92
2022/06/14 14:00:35;;;;;;;2.53;1.83;;;;;;;23.35;41.86;101253.66;6262720;28;20040;-93
2022/06/14 14:03:46;;;;;;;2.85;1.60;;;;;;;23.45;42.52;101240.09;6249893;28;20045;-92
2022/06/14 14:07:13;;;;;;;4.55;1.92;;;;;;;23.56;40.91;101241.44;6261940;28;20558;-92
2022/06/14 14:10:53;;;;;;;3.30;1.40;;;;;;;23.49;41.97;101237.91;6217184;28;20520;-92
2022/06/14 14:14:08;;;;;;;7.20;2.38;;;;;;;23.38;41.90;101236.59;6223138;28;20478;-92
2022/06/14 14:17:28;;;;;;;3.28;1.63;;;;;;;23.41;43.28;101212.44;6230522;28;20522;-92
2022/06/14 14:20:35;;;;;;;3.15;1.70;;;;;;;23.56;43.90;101220.28;6231057;28;20077;-93
2022/06/14 14:24:15;;;;;;;2.95;1.42;;;;;;;23.67;42.56;101222.41;6245851;28;20046;-93
2022/06/14 14:27:57;;;;;;;3.45;1.42;;;;;;;23.64;40.51;101223.59;6221583;28;20407;-92
2022/06/14 14:31:23;;;;;;;5.32;1.63;;;;;;;23.42;43.14;101208.78;6225115;28;20045;-92
2022/06/14 14:34:42;;;;;;;3.97;1.70;;;;;;;23.71;43.07;101215.75;6228118;28;20053;-92
2022/06/14 14:38:14;;;;;;;4.13;1.90;;;;;;;24.14;43.78;101206.91;6203478;28;20084;-92
2022/06/14 14:41:40;;;;;;;3.35;1.70;;;;;;;24.12;40.00;101209.75;6179197;28;20142;-92
2022/06/14 14:44:53;;;;;;;4.07;1.63;;;;;;;24.38;40.99;101206.47;6189236;28;20050;-92
2022/06/14 14:48:23;;;;;;;3.08;1.60;;;;;;;24.68;41.50;101203.56;6191922;28;20048;-93
2022/06/14 14:51:44;;;;;;;4.03;1.70;;;;;;;24.94;42.14;101197.53;6180858;28;20046;-92
2022/06/14 14:55:01;;;;;;;5.85;1.88;;;;;;;24.96;38.97;101190.22;6192310;28;20057;-93
2022/06/14 14:58:13;;;;;;;5.47;1.95;;;;;;;24.90;42.16;101191.84;6189313;28;20042;-92
2022/06/14 15:08:38;;;;;;;4.60;1.90;;;;;;;25.48;37.79;101182.56;6193974;28;20363;-91
2022/06/14 15:11:51;;;;;;;3.08;1.30;;;;;;;25.52;39.42;101181.97;6193204;28;20054;-92
2022/06/14 15:15:19;;;;;;;3.83;1.70;;;;;;;25.66;38.44;101174.00;6214811;28;20049;-92
2022/06/14 15:21:51;;;;;;;4.35;1.52;;;;;;;25.95;39.09;101168.28;6252963;28;20132;-92
2022/06/14 15:24:59;;;;;;;4.15;1.75;;;;;;;25.98;37.76;101167.03;6252465;28;20614;-92
2022/06/14 15:28:08;;;;;;;3.50;1.67;;;;;;;25.94;36.51;101165.84;6231465;28;20108;-94
2022/06/14 15:31:29;;;;;;;2.50;1.58;;;;;;;25.89;37.77;101161.16;6231332;28;20717;-96
2022/06/14 15:34:41;;;;;;;3.10;1.63;;;;;;;25.81;38.87;101161.31;6216654;28;20507;-94
2022/06/14 15:38:02;;;;;;;4.35;1.58;;;;;;;25.74;40.14;101150.75;6221359;28;20046;-95
2022/06/14 15:41:24;;;;;;;3.53;1.65;;;;;;;25.73;39.81;101148.28;6230815;28;20119;-96
2022/06/14 15:44:31;;;;;;;3.35;1.40;;;;;;;25.75;39.17;101148.91;6230498;28;20062;-95